Airfield :
LOGIN :

Register | Disclaimer

   EN    FR    IT 

 










Legend :    VFR   Marginal VFR   IFR   Intensive IFR   Very Intensive IFR
Visi :
Ceiling :
>= 8 km
>= 3000ft
5 to 8 km
1000 to 3000 ft
1500m to 5 km
500 to 1000 ft
800 to 1500m
200 to 500 ft
< 800m
< 200 ft
Symbols :   Thunderstorms  Fog  Heavy snow  Heavy precipitations  Wind > 20 kt
SIGMETs :     Misc.  Thunderstorms  Icing  Turbulence  Mountain Waves  Volcanic Ashes







- Airport Elevation : 233 ft
- IATA code : REU


LERS - Reus Tarragona

CURRENT METAR :
  • 100100Z AUTO 32004KT 210V010 9999 NCD 11/04 Q1027

EXPIRED METARs :
  • 100030Z AUTO 30010KT 260V350 9999 NCD 13/05 Q1027
  • 100000Z AUTO 29015G25KT 250V330 9999 NCD 14/05 Q1027
  • 092330Z AUTO 28011KT 250V340 9999 NCD 14/04 Q1027
  • 092300Z AUTO 28013KT 250V320 9999 NCD 13/04 Q1026
  • 092230Z AUTO 28019KT 9999 NCD 14/04 Q1026

TAF AMD TAF LERS
Valid from the 09 at 21:00 until the 10 at 21:00 UTC


092133Z 0921/1021 VRB03KT 9999 FEW040 TX15/1013Z TN05/1006Z
TEMPO 0921/1003 34010KT
BECMG 1010/1012 28007KT
BECMG 1016/1019 VRB03KT
No reported NOTAMs for that airfield.
1 SIGMET reported for the Barcelona FIR (LECB) :
 
Severe mountain waves
LECB SIGMET 1 VALID 100041/100400 LEVA
LECB BARCELONA FIR/UIR SEV MTW OBS AT 0041Z WI N41 E00120 - N41 E00030 - N4020 W00050 - N4020 E00002 - N41 E00120 SFC/FL380 STNR NC=



MET'MAP, your aeronautical weather chart ! - Copyright ORBIFLY December 2007 - Disclaimer

ORBIFLY MET'MAP TEAM :

Programming & Development : Alexandra Zaïnal
Concept & Development : Baudouin d'Aumeries
Co-Development & Prog : Marc-Olivier Méhu
Technical & hardware support : Manuel Goepfert

Contact : metmap@orbifly.com




SOURCES & CREDITS :

   NOAA